Time;durP1;ratioP1;P1;durP2;ratioP2;P2;SDS_P1;SDS_P2;PMS_P1;PMS_P2;Temp;Humidity;BMP_temperature;BMP_pressure;BME280_temperature;BME280_humidity;BME280_pressure;Samples;Min_cycle;Max_cycle;Signal;HPM_P1;HPM_P2
2023/05/19 00:01:24;;;;;;;4.13;2.60;;;;;;;;;;5074046;28;20685;-56
2023/05/19 00:03:51;;;;;;;4.00;2.27;;;;;;;;;;5073919;28;20739;-56
2023/05/19 00:06:21;;;;;;;5.77;2.50;;;;;;;;;;5074202;28;20670;-56
2023/05/19 00:08:47;;;;;;;5.03;2.27;;;;;;;;;;5073631;28;20619;-53
2023/05/19 00:11:13;;;;;;;4.67;2.50;;;;;;;;;;5074135;28;20211;-56
2023/05/19 00:13:41;;;;;;;6.30;4.10;;;;;;;;;;5073669;28;20200;-53
2023/05/19 00:16:08;;;;;;;5.23;2.73;;;;;;;;;;5073921;28;20286;-53
2023/05/19 00:18:34;;;;;;;3.10;2.10;;;;;;;;;;5074013;28;20317;-56
2023/05/19 00:21:00;;;;;;;4.03;2.20;;;;;;;;;;5069752;28;20650;-54
2023/05/19 00:23:26;;;;;;;5.10;2.20;;;;;;;;;;5073806;28;20214;-54
2023/05/19 00:25:52;;;;;;;5.93;2.97;;;;;;;;;;5073938;28;20196;-54
2023/05/19 00:28:18;;;;;;;3.97;2.10;;;;;;;;;;5073834;28;20195;-54
2023/05/19 00:30:46;;;;;;;2.73;2.10;;;;;;;;;;5073725;28;20199;-55
2023/05/19 00:33:12;;;;;;;6.00;3.17;;;;;;;;;;5073793;28;20199;-54
2023/05/19 00:35:39;;;;;;;5.83;2.67;;;;;;;;;;5073404;28;20233;-54
2023/05/19 00:38:05;;;;;;;5.53;2.63;;;;;;;;;;5073609;28;20693;-54
2023/05/19 00:40:33;;;;;;;3.43;2.77;;;;;;;;;;5073590;28;20203;-54
2023/05/19 00:42:59;;;;;;;3.70;2.43;;;;;;;;;;5073299;28;20826;-54
2023/05/19 00:45:25;;;;;;;4.70;2.40;;;;;;;;;;5073500;28;20196;-54
2023/05/19 00:47:52;;;;;;;6.67;2.80;;;;;;;;;;5073529;28;20218;-54
2023/05/19 00:50:18;;;;;;;3.60;2.57;;;;;;;;;;5073340;28;20204;-54
2023/05/19 00:52:44;;;;;;;9.87;5.93;;;;;;;;;;5073387;28;20204;-55
2023/05/19 00:55:11;;;;;;;6.63;3.07;;;;;;;;;;5073173;28;20608;-54
2023/05/19 00:57:37;;;;;;;5.17;2.10;;;;;;;;;;5073044;28;20245;-54
2023/05/19 01:00:04;;;;;;;2.97;2.20;;;;;;;;;;5072637;28;20219;-54
2023/05/19 01:02:31;;;;;;;5.40;2.40;;;;;;;;;;5073235;28;20201;-54
2023/05/19 01:04:59;;;;;;;4.00;2.40;;;;;;;;;;5072779;28;20253;-54
2023/05/19 01:07:26;;;;;;;4.67;2.60;;;;;;;;;;5073149;28;20286;-54
2023/05/19 01:09:52;;;;;;;7.13;2.30;;;;;;;;;;5072889;28;20210;-54
2023/05/19 01:12:18;;;;;;;5.43;2.40;;;;;;;;;;5072917;28;20283;-54
2023/05/19 01:14:44;;;;;;;4.83;2.33;;;;;;;;;;5072922;28;20772;-54
2023/05/19 01:17:14;;;;;;;5.13;2.30;;;;;;;;;;5072691;28;20258;-54
2023/05/19 01:19:47;;;;;;;4.57;2.43;;;;;;;;;;5072642;28;20563;-54
2023/05/19 01:22:27;;;;;;;5.50;3.10;;;;;;;;;;5072517;28;20249;-54
2023/05/19 01:25:02;;;;;;;7.00;5.33;;;;;;;;;;5070001;28;20211;-54
2023/05/19 01:27:42;;;;;;;3.47;2.47;;;;;;;;;;5072501;28;20201;-54
2023/05/19 01:30:25;;;;;;;5.13;2.60;;;;;;;;;;5072168;28;20684;-54
2023/05/19 01:32:53;;;;;;;6.47;2.60;;;;;;;;;;5072485;28;20290;-54
2023/05/19 01:35:19;;;;;;;5.67;2.37;;;;;;;;;;5072385;28;20239;-54
2023/05/19 01:37:46;;;;;;;5.07;2.53;;;;;;;;;;5072088;28;20224;-54
2023/05/19 01:40:12;;;;;;;4.43;2.43;;;;;;;;;;5072264;28;20235;-54
2023/05/19 01:42:39;;;;;;;6.50;2.63;;;;;;;;;;5072142;28;20298;-54
2023/05/19 01:45:09;;;;;;;3.37;2.60;;;;;;;;;;5072368;28;20199;-54
2023/05/19 01:47:39;;;;;;;5.87;2.20;;;;;;;;;;5072243;28;20279;-54
2023/05/19 01:50:06;;;;;;;3.93;2.10;;;;;;;;;;5072103;28;20202;-54
2023/05/19 01:52:32;;;;;;;4.47;2.20;;;;;;;;;;5072174;28;20195;-55
2023/05/19 01:54:58;;;;;;;4.43;2.20;;;;;;;;;;5071869;28;20202;-54
2023/05/19 01:57:27;;;;;;;5.47;2.43;;;;;;;;;;5072118;28;20277;-55
2023/05/19 01:59:58;;;;;;;4.10;2.63;;;;;;;;;;5071941;28;20205;-55
2023/05/19 02:02:29;;;;;;;3.37;2.90;;;;;;;;;;5072075;28;20203;-55
2023/05/19 02:04:59;;;;;;;2.70;2.20;;;;;;;;;;5071792;28;20261;-54
2023/05/19 02:07:31;;;;;;;5.03;2.57;;;;;;;;;;5071931;28;20277;-55
2023/05/19 02:10:02;;;;;;;4.83;2.43;;;;;;;;;;5071637;28;20275;-54
2023/05/19 02:12:31;;;;;;;4.27;2.40;;;;;;;;;;5072025;28;20615;-54
2023/05/19 02:14:59;;;;;;;5.53;2.70;;;;;;;;;;5071748;28;20531;-55
2023/05/19 02:17:26;;;;;;;5.27;2.70;;;;;;;;;;5071775;28;20310;-55
2023/05/19 02:19:52;;;;;;;8.17;2.90;;;;;;;;;;5071985;28;20286;-55
2023/05/19 02:22:20;;;;;;;6.13;2.63;;;;;;;;;;5071903;28;20199;-55
2023/05/19 02:24:46;;;;;;;6.87;3.10;;;;;;;;;;5071694;28;20226;-55
2023/05/19 02:27:12;;;;;;;4.83;2.50;;;;;;;;;;5071708;28;20684;-55
2023/05/19 02:29:38;;;;;;;4.50;2.40;;;;;;;;;;5071737;28;20290;-55
2023/05/19 02:32:05;;;;;;;4.83;2.50;;;;;;;;;;5071723;28;20200;-54
2023/05/19 02:34:31;;;;;;;4.00;2.40;;;;;;;;;;5071555;28;20302;-55
2023/05/19 02:36:57;;;;;;;4.83;2.53;;;;;;;;;;5071433;28;20768;-55
2023/05/19 02:39:25;;;;;;;3.43;2.53;;;;;;;;;;5071720;28;20291;-55
2023/05/19 02:41:51;;;;;;;3.30;2.37;;;;;;;;;;5071643;28;20227;-54
2023/05/19 02:44:17;;;;;;;3.17;2.60;;;;;;;;;;5071624;28;20226;-55
2023/05/19 02:46:43;;;;;;;5.83;3.43;;;;;;;;;;5071580;28;20196;-55
2023/05/19 02:49:10;;;;;;;5.17;3.13;;;;;;;;;;5071572;28;20548;-54
2023/05/19 02:51:35;;;;;;;6.10;3.10;;;;;;;;;;5071584;28;20218;-55
2023/05/19 02:54:01;;;;;;;5.17;2.63;;;;;;;;;;5071295;28;20256;-54
2023/05/19 02:56:29;;;;;;;5.50;2.93;;;;;;;;;;5071453;28;20192;-55
2023/05/19 02:58:55;;;;;;;4.60;2.97;;;;;;;;;;5071029;28;20301;-55
2023/05/19 03:01:21;;;;;;;3.63;2.63;;;;;;;;;;5071431;28;20725;-55
2023/05/19 03:03:47;;;;;;;5.47;2.87;;;;;;;;;;5071286;28;20224;-55
2023/05/19 03:06:14;;;;;;;6.37;2.70;;;;;;;;;;5071458;28;20278;-55
2023/05/19 03:08:40;;;;;;;3.83;2.67;;;;;;;;;;5071180;28;20662;-55
2023/05/19 03:11:06;;;;;;;3.30;2.40;;;;;;;;;;5071361;28;20200;-55
2023/05/19 03:13:33;;;;;;;4.63;2.50;;;;;;;;;;5071290;28;20283;-55
2023/05/19 03:16:00;;;;;;;5.67;2.60;;;;;;;;;;5071270;28;20206;-55
2023/05/19 03:18:26;;;;;;;4.37;3.10;;;;;;;;;;5071240;28;20227;-54
2023/05/19 03:20:52;;;;;;;4.63;2.80;;;;;;;;;;5071201;28;20202;-55
2023/05/19 03:23:19;;;;;;;3.97;2.73;;;;;;;;;;5073144;28;20196;-55
2023/05/19 03:25:45;;;;;;;3.30;2.73;;;;;;;;;;5074783;28;20301;-54
2023/05/19 03:28:11;;;;;;;3.37;2.63;;;;;;;;;;5074513;28;20214;-55
2023/05/19 03:30:38;;;;;;;5.10;2.60;;;;;;;;;;5074206;28;20325;-55
2023/05/19 03:33:04;;;;;;;4.73;2.40;;;;;;;;;;5074729;28;20205;-55
2023/05/19 03:35:30;;;;;;;6.63;3.00;;;;;;;;;;5074572;28;20314;-55
2023/05/19 03:37:56;;;;;;;7.40;3.20;;;;;;;;;;5074454;28;20755;-55
2023/05/19 03:40:22;;;;;;;3.73;2.70;;;;;;;;;;5074422;28;20227;-54
2023/05/19 03:42:48;;;;;;;6.50;3.10;;;;;;;;;;5074785;28;20200;-55
2023/05/19 03:45:14;;;;;;;6.23;3.30;;;;;;;;;;5074436;28;20203;-55
2023/05/19 03:47:41;;;;;;;5.27;2.97;;;;;;;;;;5074429;28;20711;-55
2023/05/19 03:50:08;;;;;;;4.20;2.53;;;;;;;;;;5074352;28;20199;-55
2023/05/19 03:52:35;;;;;;;5.53;2.60;;;;;;;;;;5074383;28;20272;-54
2023/05/19 03:55:01;;;;;;;4.87;3.13;;;;;;;;;;5074258;28;20199;-54
2023/05/19 03:57:28;;;;;;;4.17;3.00;;;;;;;;;;5074186;28;20615;-54
2023/05/19 03:59:54;;;;;;;6.13;3.13;;;;;;;;;;5074106;28;20302;-54
2023/05/19 04:02:20;;;;;;;4.43;2.90;;;;;;;;;;5074349;28;20225;-54
2023/05/19 04:04:47;;;;;;;5.83;3.20;;;;;;;;;;5074160;28;20576;-54
2023/05/19 04:07:13;;;;;;;5.77;3.00;;;;;;;;;;5073957;28;20203;-54
2023/05/19 04:09:39;;;;;;;6.93;3.10;;;;;;;;;;5073945;28;20657;-55
2023/05/19 04:12:05;;;;;;;3.73;3.10;;;;;;;;;;5074106;28;20195;-54
2023/05/19 04:14:31;;;;;;;6.00;3.00;;;;;;;;;;5073996;28;20196;-54
2023/05/19 04:16:57;;;;;;;4.43;2.73;;;;;;;;;;5073874;28;20564;-54
2023/05/19 04:19:23;;;;;;;7.00;4.00;;;;;;;;;;5074003;28;20195;-54
2023/05/19 04:21:51;;;;;;;4.70;3.20;;;;;;;;;;5073867;28;20229;-54
2023/05/19 04:24:17;;;;;;;5.50;3.20;;;;;;;;;;5073569;28;20561;-54
2023/05/19 04:26:45;;;;;;;6.50;3.50;;;;;;;;;;5073766;28;20539;-54
2023/05/19 04:29:12;;;;;;;5.07;3.03;;;;;;;;;;5073478;28;20207;-54
2023/05/19 04:31:39;;;;;;;3.77;2.90;;;;;;;;;;5073626;28;20198;-54
2023/05/19 04:34:06;;;;;;;4.33;3.10;;;;;;;;;;5072426;28;20590;-55
2023/05/19 04:36:32;;;;;;;7.57;3.20;;;;;;;;;;5073301;28;20322;-55
2023/05/19 04:39:06;;;;;;;3.20;2.90;;;;;;;;;;5073328;28;20208;-55
2023/05/19 04:41:38;;;;;;;7.63;3.57;;;;;;;;;;5073539;28;20577;-55
2023/05/19 04:44:06;;;;;;;5.60;3.13;;;;;;;;;;5073315;28;20206;-54
2023/05/19 04:46:32;;;;;;;5.67;3.10;;;;;;;;;;5073321;28;20192;-54
2023/05/19 04:49:00;;;;;;;9.93;3.63;;;;;;;;;;5073210;28;20226;-54
2023/05/19 04:51:30;;;;;;;5.00;2.93;;;;;;;;;;5073104;28;20594;-55
2023/05/19 04:53:56;;;;;;;6.07;3.37;;;;;;;;;;5072999;28;20208;-55
2023/05/19 04:56:23;;;;;;;6.10;3.17;;;;;;;;;;5073294;28;20203;-55
2023/05/19 04:58:49;;;;;;;5.00;3.30;;;;;;;;;;5073060;28;20318;-55
2023/05/19 05:01:15;;;;;;;5.13;3.50;;;;;;;;;;5073104;28;20245;-54
2023/05/19 05:03:41;;;;;;;5.97;3.33;;;;;;;;;;5072895;28;20570;-54
2023/05/19 05:06:08;;;;;;;6.63;3.77;;;;;;;;;;5072853;28;20192;-53
2023/05/19 05:08:34;;;;;;;4.83;3.17;;;;;;;;;;5072895;28;20234;-55
2023/05/19 05:11:00;;;;;;;5.70;3.43;;;;;;;;;;5072912;28;20222;-55
2023/05/19 05:13:28;;;;;;;5.60;3.67;;;;;;;;;;5072762;28;20196;-55
2023/05/19 05:15:55;;;;;;;5.90;3.60;;;;;;;;;;5072712;28;20219;-55
2023/05/19 05:18:21;;;;;;;5.80;3.50;;;;;;;;;;5072689;28;20258;-55
2023/05/19 05:20:47;;;;;;;4.63;3.03;;;;;;;;;;5072696;28;20294;-55
2023/05/19 05:23:14;;;;;;;4.57;3.07;;;;;;;;;;5072454;28;20290;-55
2023/05/19 05:25:40;;;;;;;8.23;3.20;;;;;;;;;;5072513;28;20196;-56
2023/05/19 05:28:06;;;;;;;6.23;3.70;;;;;;;;;;5072599;28;20196;-54
2023/05/19 05:30:34;;;;;;;5.87;3.33;;;;;;;;;;5072486;28;20562;-55
2023/05/19 05:33:00;;;;;;;3.97;2.93;;;;;;;;;;5072317;28;20724;-55
2023/05/19 05:35:27;;;;;;;6.60;3.40;;;;;;;;;;5072187;28;20331;-55
2023/05/19 05:37:53;;;;;;;7.53;3.33;;;;;;;;;;5072169;28;20261;-55
2023/05/19 05:40:19;;;;;;;5.20;3.13;;;;;;;;;;5072332;28;20230;-55
2023/05/19 05:42:45;;;;;;;6.47;3.30;;;;;;;;;;5072212;28;20195;-55
2023/05/19 05:45:11;;;;;;;5.87;3.17;;;;;;;;;;5071951;28;20202;-55
2023/05/19 05:47:40;;;;;;;6.00;3.10;;;;;;;;;;5072453;28;20274;-55
2023/05/19 05:50:08;;;;;;;4.47;3.00;;;;;;;;;;5072226;28;20210;-55
2023/05/19 05:52:35;;;;;;;7.60;3.00;;;;;;;;;;5072124;28;20268;-55
2023/05/19 05:55:02;;;;;;;4.77;2.87;;;;;;;;;;5072107;28;20296;-55
2023/05/19 05:57:29;;;;;;;5.20;2.80;;;;;;;;;;5072059;28;20412;-54
2023/05/19 05:59:55;;;;;;;5.07;2.83;;;;;;;;;;5072039;28;20196;-54
2023/05/19 06:02:21;;;;;;;6.40;3.10;;;;;;;;;;5072105;28;20203;-54
2023/05/19 06:04:49;;;;;;;6.73;3.00;;;;;;;;;;5071968;28;20215;-54
2023/05/19 06:07:15;;;;;;;7.13;3.03;;;;;;;;;;5071722;28;20565;-54
2023/05/19 06:09:41;;;;;;;5.87;2.80;;;;;;;;;;5071811;28;20192;-54
2023/05/19 06:12:07;;;;;;;4.70;2.67;;;;;;;;;;5071968;28;20286;-54
2023/05/19 06:14:33;;;;;;;4.80;2.80;;;;;;;;;;5072148;28;20438;-54
2023/05/19 06:16:59;;;;;;;7.97;3.53;;;;;;;;;;5071678;28;20223;-54
2023/05/19 06:19:25;;;;;;;5.53;3.13;;;;;;;;;;5071646;28;20199;-54
2023/05/19 06:21:52;;;;;;;6.03;3.20;;;;;;;;;;5071824;28;20315;-55
2023/05/19 06:24:18;;;;;;;5.77;3.03;;;;;;;;;;5071684;28;20253;-54
2023/05/19 06:26:44;;;;;;;5.87;3.20;;;;;;;;;;5071675;28;20199;-54
2023/05/19 06:29:10;;;;;;;6.77;3.00;;;;;;;;;;5071664;28;20226;-55
2023/05/19 06:31:36;;;;;;;6.43;2.90;;;;;;;;;;5071437;28;20733;-54
2023/05/19 06:34:02;;;;;;;7.53;2.80;;;;;;;;;;5071535;28;20188;-54
2023/05/19 06:36:28;;;;;;;7.00;3.07;;;;;;;;;;5071252;28;20242;-54
2023/05/19 06:38:56;;;;;;;5.57;2.50;;;;;;;;;;5071341;28;20767;-55
2023/05/19 06:41:22;;;;;;;3.30;2.63;;;;;;;;;;5071422;28;20203;-54
2023/05/19 06:43:48;;;;;;;3.73;2.53;;;;;;;;;;5071690;28;20707;-54
2023/05/19 06:46:16;;;;;;;5.90;2.87;;;;;;;;;;5071230;28;20196;-54
2023/05/19 06:48:42;;;;;;;4.13;2.50;;;;;;;;;;5071330;28;20211;-54
2023/05/19 06:51:09;;;;;;;5.50;2.80;;;;;;;;;;5071498;28;20195;-54
2023/05/19 06:53:35;;;;;;;4.37;2.47;;;;;;;;;;5071466;28;20210;-54
2023/05/19 06:56:02;;;;;;;6.87;2.50;;;;;;;;;;5071420;28;20195;-54
2023/05/19 06:58:28;;;;;;;5.93;2.60;;;;;;;;;;5073554;28;20223;-54
2023/05/19 07:00:54;;;;;;;6.43;2.90;;;;;;;;;;5075341;28;20200;-55
2023/05/19 07:03:20;;;;;;;3.97;2.43;;;;;;;;;;5075119;28;20290;-54
2023/05/19 07:05:46;;;;;;;6.57;2.40;;;;;;;;;;5075105;28;20282;-54
2023/05/19 07:08:12;;;;;;;7.80;2.97;;;;;;;;;;5075014;28;20191;-54
2023/05/19 07:10:38;;;;;;;7.33;2.60;;;;;;;;;;5075218;28;20741;-54
2023/05/19 07:13:06;;;;;;;6.43;2.73;;;;;;;;;;5075194;28;20295;-54
2023/05/19 07:15:32;;;;;;;6.23;2.30;;;;;;;;;;5075107;28;20274;-54
2023/05/19 07:17:58;;;;;;;6.67;2.60;;;;;;;;;;5074764;28;20236;-55
2023/05/19 07:20:24;;;;;;;8.40;3.30;;;;;;;;;;5074890;28;20214;-55
2023/05/19 07:22:50;;;;;;;5.53;2.40;;;;;;;;;;5074925;28;20237;-55
2023/05/19 07:25:16;;;;;;;6.03;2.53;;;;;;;;;;5074758;28;20611;-55
2023/05/19 07:27:42;;;;;;;5.10;2.50;;;;;;;;;;5074818;28;20202;-55
2023/05/19 07:30:10;;;;;;;6.43;2.60;;;;;;;;;;5074726;28;20199;-55
2023/05/19 07:32:36;;;;;;;7.23;2.60;;;;;;;;;;5074787;28;20199;-55
2023/05/19 07:35:03;;;;;;;7.63;2.90;;;;;;;;;;5074545;28;20231;-56
2023/05/19 07:37:29;;;;;;;5.40;2.23;;;;;;;;;;5074439;28;20633;-55
2023/05/19 07:39:55;;;;;;;4.23;2.20;;;;;;;;;;5074574;28;20284;-55
2023/05/19 07:42:21;;;;;;;5.43;2.30;;;;;;;;;;5074506;28;20746;-55
2023/05/19 07:44:47;;;;;;;5.80;2.53;;;;;;;;;;5074251;28;20189;-55
2023/05/19 07:47:14;;;;;;;6.07;2.50;;;;;;;;;;5074295;28;20202;-54
2023/05/19 07:49:40;;;;;;;5.63;2.17;;;;;;;;;;5074401;28;20205;-55
2023/05/19 07:52:06;;;;;;;4.27;2.20;;;;;;;;;;5074345;28;20202;-56
2023/05/19 07:54:32;;;;;;;4.27;2.00;;;;;;;;;;5074294;28;20197;-54
2023/05/19 07:56:58;;;;;;;5.63;2.23;;;;;;;;;;5074209;28;20661;-56
2023/05/19 07:59:24;;;;;;;5.20;2.57;;;;;;;;;;5074092;28;20201;-56
2023/05/19 08:01:50;;;;;;;4.17;2.27;;;;;;;;;;5074474;28;20200;-56
2023/05/19 08:04:18;;;;;;;4.67;2.10;;;;;;;;;;5073886;28;20629;-55
2023/05/19 08:06:44;;;;;;;5.43;2.30;;;;;;;;;;5074100;28;20202;-55
2023/05/19 08:09:10;;;;;;;5.40;2.30;;;;;;;;;;5073865;28;20202;-52
2023/05/19 08:11:37;;;;;;;4.77;1.90;;;;;;;;;;5074013;28;20558;-52
2023/05/19 08:14:03;;;;;;;8.57;2.47;;;;;;;;;;5073951;28;20252;-56
2023/05/19 08:16:29;;;;;;;3.83;2.27;;;;;;;;;;5071566;28;20195;-54
2023/05/19 08:18:55;;;;;;;6.80;2.50;;;;;;;;;;5063094;28;20650;-56
2023/05/19 08:21:22;;;;;;;6.17;2.60;;;;;;;;;;5073570;28;20200;-55
2023/05/19 08:23:48;;;;;;;3.73;2.07;;;;;;;;;;5073409;28;20209;-55
2023/05/19 08:26:14;;;;;;;3.80;2.20;;;;;;;;;;5073379;28;20203;-56
2023/05/19 08:28:40;;;;;;;5.17;2.10;;;;;;;;;;5073028;28;20212;-55
2023/05/19 08:31:06;;;;;;;6.40;4.03;;;;;;;;;;5073184;28;20260;-55
2023/05/19 08:33:32;;;;;;;6.40;2.40;;;;;;;;;;5073236;28;20211;-55
2023/05/19 08:35:58;;;;;;;2.97;1.73;;;;;;;;;;5073203;28;20875;-56
2023/05/19 08:38:26;;;;;;;3.43;2.00;;;;;;;;;;5071080;28;20238;-55
2023/05/19 08:40:52;;;;;;;5.20;2.10;;;;;;;;;;5071659;28;20577;-55
2023/05/19 08:43:18;;;;;;;3.37;1.83;;;;;;;;;;5073275;28;20274;-54
2023/05/19 08:45:47;;;;;;;5.90;1.93;;;;;;;;;;5073299;28;20211;-55
2023/05/19 08:48:14;;;;;;;3.23;1.80;;;;;;;;;;5073137;28;20543;-54
2023/05/19 08:50:41;;;;;;;4.13;2.10;;;;;;;;;;5073136;28;20195;-55
2023/05/19 08:53:10;;;;;;;3.23;1.97;;;;;;;;;;5073206;28;20249;-55
2023/05/19 08:55:41;;;;;;;3.47;1.80;;;;;;;;;;5073186;28;20216;-55
2023/05/19 08:58:07;;;;;;;3.13;1.60;;;;;;;;;;5073153;28;20595;-55
2023/05/19 09:00:34;;;;;;;3.67;1.83;;;;;;;;;;5072913;28;20200;-55
2023/05/19 09:03:00;;;;;;;4.03;1.90;;;;;;;;;;5072473;28;20227;-55
2023/05/19 09:05:26;;;;;;;3.27;1.60;;;;;;;;;;5073089;28;20221;-56
2023/05/19 09:07:52;;;;;;;3.90;1.60;;;;;;;;;;5073137;28;20196;-56
2023/05/19 09:10:18;;;;;;;4.30;1.60;;;;;;;;;;5073146;28;20647;-56
2023/05/19 09:12:46;;;;;;;3.93;1.83;;;;;;;;;;5073041;28;20196;-56
2023/05/19 09:15:12;;;;;;;5.13;2.07;;;;;;;;;;5072861;28;20215;-56
2023/05/19 09:17:38;;;;;;;5.13;1.77;;;;;;;;;;5072966;28;20242;-54
2023/05/19 09:20:09;;;;;;;2.40;1.57;;;;;;;;;;5072469;28;20202;-55
2023/05/19 09:22:40;;;;;;;5.30;2.00;;;;;;;;;;5072797;28;20210;-55
2023/05/19 09:25:06;;;;;;;3.43;1.80;;;;;;;;;;5072832;28;20268;-55
2023/05/19 09:27:32;;;;;;;2.33;1.53;;;;;;;;;;5072656;28;20687;-55
2023/05/19 09:30:07;;;;;;;2.40;1.40;;;;;;;;;;5072778;28;20562;-55
2023/05/19 09:32:35;;;;;;;2.97;1.50;;;;;;;;;;5072338;28;20262;-56
2023/05/19 09:35:02;;;;;;;3.17;1.90;;;;;;;;;;5072313;28;20243;-55
2023/05/19 09:37:28;;;;;;;5.40;1.47;;;;;;;;;;5072425;28;20631;-56
2023/05/19 09:39:54;;;;;;;12.37;3.60;;;;;;;;;;5072584;28;20204;-54
2023/05/19 09:42:24;;;;;;;3.83;1.90;;;;;;;;;;5072491;28;20242;-55
2023/05/19 09:44:50;;;;;;;4.30;1.50;;;;;;;;;;5072401;28;20195;-55
2023/05/19 09:47:18;;;;;;;3.53;1.50;;;;;;;;;;5072318;28;20192;-56
2023/05/19 09:49:45;;;;;;;3.17;1.50;;;;;;;;;;5072295;28;20227;-55
2023/05/19 09:52:17;;;;;;;4.10;1.67;;;;;;;;;;5072297;28;20201;-57
2023/05/19 09:54:44;;;;;;;2.27;1.37;;;;;;;;;;5072315;28;20229;-56
2023/05/19 09:57:10;;;;;;;5.83;3.30;;;;;;;;;;5071915;28;20231;-57
2023/05/19 09:59:37;;;;;;;3.40;1.80;;;;;;;;;;5071941;28;20197;-56
2023/05/19 10:02:04;;;;;;;2.40;1.37;;;;;;;;;;5072178;28;20671;-56
2023/05/19 10:04:31;;;;;;;3.60;1.63;;;;;;;;;;5071952;28;20249;-56
2023/05/19 10:07:04;;;;;;;3.17;1.90;;;;;;;;;;5072202;28;20201;-56
2023/05/19 10:09:30;;;;;;;2.23;1.53;;;;;;;;;;5071966;28;20200;-56
2023/05/19 10:11:56;;;;;;;3.47;1.70;;;;;;;;;;5071951;28;20197;-55
2023/05/19 10:14:23;;;;;;;2.87;1.60;;;;;;;;;;5071970;28;20615;-56
2023/05/19 10:16:50;;;;;;;3.33;1.47;;;;;;;;;;5072015;28;20201;-56
2023/05/19 10:19:20;;;;;;;2.67;1.20;;;;;;;;;;5069550;28;20224;-56
2023/05/19 10:21:47;;;;;;;3.37;2.00;;;;;;;;;;5071841;28;20191;-55
2023/05/19 10:24:13;;;;;;;5.07;1.60;;;;;;;;;;5071866;28;20207;-55
2023/05/19 10:26:39;;;;;;;5.97;1.50;;;;;;;;;;5071967;28;20243;-56
2023/05/19 10:29:06;;;;;;;2.43;1.70;;;;;;;;;;5071995;28;20191;-56
2023/05/19 10:31:33;;;;;;;2.90;1.50;;;;;;;;;;5071824;28;20219;-56
2023/05/19 10:34:06;;;;;;;4.20;1.80;;;;;;;;;;5075149;28;20930;-56
2023/05/19 10:36:38;;;;;;;4.33;1.50;;;;;;;;;;5075002;28;20259;-56
2023/05/19 10:39:06;;;;;;;4.83;1.70;;;;;;;;;;5074949;28;20219;-55
2023/05/19 10:41:38;;;;;;;3.70;1.50;;;;;;;;;;5074846;28;20237;-56
2023/05/19 10:44:08;;;;;;;6.50;5.53;;;;;;;;;;5075089;28;20196;-55
2023/05/19 10:46:34;;;;;;;2.90;1.67;;;;;;;;;;5075460;28;20195;-55
2023/05/19 10:49:00;;;;;;;3.03;1.77;;;;;;;;;;5075245;28;20202;-56
2023/05/19 10:51:30;;;;;;;3.57;1.60;;;;;;;;;;5075213;28;20196;-56
2023/05/19 10:53:57;;;;;;;3.73;1.67;;;;;;;;;;5075020;28;20316;-55
2023/05/19 10:56:35;;;;;;;2.97;1.70;;;;;;;;;;5074856;28;20260;-55
2023/05/19 10:59:01;;;;;;;4.40;1.73;;;;;;;;;;5074937;28;20233;-55
2023/05/19 11:01:31;;;;;;;3.70;1.70;;;;;;;;;;5075397;28;20195;-55
2023/05/19 11:03:57;;;;;;;3.13;1.93;;;;;;;;;;5075469;28;20240;-55
2023/05/19 11:06:27;;;;;;;3.93;2.20;;;;;;;;;;5075400;28;20696;-55
2023/05/19 11:08:53;;;;;;;3.33;1.73;;;;;;;;;;5075345;28;20608;-55
2023/05/19 11:11:20;;;;;;;3.37;1.50;;;;;;;;;;5075446;28;20216;-54
2023/05/19 11:13:50;;;;;;;3.00;1.60;;;;;;;;;;5075212;28;20245;-54
2023/05/19 11:16:18;;;;;;;2.27;1.40;;;;;;;;;;5066530;28;20287;-54
2023/05/19 11:18:47;;;;;;;3.03;1.60;;;;;;;;;;5074686;28;20223;-54
2023/05/19 11:21:13;;;;;;;4.37;1.73;;;;;;;;;;5074775;28;20200;-54
2023/05/19 11:23:39;;;;;;;1.83;1.40;;;;;;;;;;5074611;28;20659;-54
2023/05/19 11:26:07;;;;;;;3.90;2.80;;;;;;;;;;5074967;28;20203;-54
2023/05/19 11:28:34;;;;;;;3.63;1.60;;;;;;;;;;5074361;28;20203;-55
2023/05/19 11:31:02;;;;;;;2.00;1.50;;;;;;;;;;5074876;28;20210;-54
2023/05/19 11:33:28;;;;;;;2.80;1.40;;;;;;;;;;5074422;28;20214;-55
2023/05/19 11:35:57;;;;;;;2.57;1.40;;;;;;;;;;5074476;28;20238;-53
2023/05/19 11:38:23;;;;;;;3.80;1.63;;;;;;;;;;5072483;28;20236;-55
2023/05/19 11:40:49;;;;;;;2.30;1.40;;;;;;;;;;5072588;28;20207;-54
2023/05/19 11:43:15;;;;;;;2.77;1.80;;;;;;;;;;5074041;28;20201;-55
2023/05/19 11:45:42;;;;;;;6.10;1.83;;;;;;;;;;5074193;28;20201;-55
2023/05/19 11:48:12;;;;;;;4.30;1.60;;;;;;;;;;5072730;28;20192;-55
2023/05/19 11:50:40;;;;;;;2.00;1.60;;;;;;;;;;5074058;28;20235;-54
2023/05/19 11:53:06;;;;;;;3.17;2.53;;;;;;;;;;5074616;28;20199;-54
2023/05/19 11:55:32;;;;;;;3.07;1.50;;;;;;;;;;5074421;28;20542;-54
2023/05/19 11:57:58;;;;;;;2.13;1.57;;;;;;;;;;5074286;28;20718;-54
2023/05/19 12:00:24;;;;;;;4.57;2.00;;;;;;;;;;5074403;28;20206;-55
2023/05/19 12:02:51;;;;;;;2.83;1.67;;;;;;;;;;5074444;28;20580;-54
2023/05/19 12:05:23;;;;;;;2.53;1.50;;;;;;;;;;5074134;28;20762;-54
2023/05/19 12:07:50;;;;;;;3.37;1.40;;;;;;;;;;5074179;28;20211;-54
2023/05/19 12:10:16;;;;;;;2.90;2.00;;;;;;;;;;5074120;28;20204;-54
2023/05/19 12:12:44;;;;;;;3.07;1.60;;;;;;;;;;5074178;28;20196;-54
2023/05/19 12:15:15;;;;;;;3.57;1.87;;;;;;;;;;5073934;28;20205;-54
2023/05/19 12:17:41;;;;;;;1.80;1.30;;;;;;;;;;5071625;28;20244;-54
2023/05/19 12:20:08;;;;;;;3.50;1.80;;;;;;;;;;5071419;28;20225;-54
2023/05/19 12:22:35;;;;;;;4.17;1.57;;;;;;;;;;5073506;28;20209;-54
2023/05/19 12:25:03;;;;;;;4.70;1.83;;;;;;;;;;5073568;28;20218;-54
2023/05/19 12:27:29;;;;;;;2.87;1.80;;;;;;;;;;5073641;28;20216;-54
2023/05/19 12:29:56;;;;;;;3.50;1.87;;;;;;;;;;5073328;28;20197;-54
2023/05/19 12:32:23;;;;;;;3.20;1.77;;;;;;;;;;5073344;28;20293;-54
2023/05/19 12:34:49;;;;;;;6.80;2.00;;;;;;;;;;5073200;28;20651;-53
2023/05/19 12:37:15;;;;;;;2.17;1.93;;;;;;;;;;5073265;28;20308;-53
2023/05/19 12:39:42;;;;;;;4.77;2.00;;;;;;;;;;5073179;28;20197;-53
2023/05/19 12:42:09;;;;;;;3.03;1.30;;;;;;;;;;5073197;28;20720;-54
2023/05/19 12:44:37;;;;;;;2.03;1.50;;;;;;;;;;5073451;28;20682;-55
2023/05/19 12:47:04;;;;;;;3.87;1.80;;;;;;;;;;5073275;28;20275;-55
2023/05/19 12:49:31;;;;;;;2.30;1.50;;;;;;;;;;5073063;28;20196;-55
2023/05/19 12:51:57;;;;;;;2.30;1.53;;;;;;;;;;5072839;28;20204;-55
2023/05/19 12:54:23;;;;;;;3.40;1.60;;;;;;;;;;5073145;28;20195;-55
2023/05/19 12:56:50;;;;;;;2.60;1.60;;;;;;;;;;5072173;28;20197;-55
2023/05/19 12:59:20;;;;;;;3.23;1.43;;;;;;;;;;5072845;28;20225;-54
2023/05/19 13:01:56;;;;;;;3.97;1.73;;;;;;;;;;5065861;28;20207;-55
2023/05/19 13:04:22;;;;;;;2.80;1.83;;;;;;;;;;5072709;28;20223;-53
2023/05/19 13:06:48;;;;;;;2.63;1.60;;;;;;;;;;5072137;28;20223;-53
2023/05/19 13:09:15;;;;;;;3.43;1.70;;;;;;;;;;5072725;28;20278;-53
2023/05/19 13:11:42;;;;;;;8.57;1.80;;;;;;;;;;5072424;28;20201;-53
2023/05/19 13:14:10;;;;;;;4.73;1.70;;;;;;;;;;5072327;28;20744;-53
2023/05/19 13:16:36;;;;;;;1.47;1.37;;;;;;;;;;5072383;28;20201;-54
2023/05/19 13:19:02;;;;;;;3.37;1.80;;;;;;;;;;5071774;28;20273;-53
2023/05/19 13:21:28;;;;;;;3.83;1.90;;;;;;;;;;5072260;28;20926;-54
2023/05/19 13:23:54;;;;;;;5.43;1.60;;;;;;;;;;5072195;28;20204;-53
2023/05/19 13:26:20;;;;;;;3.20;1.53;;;;;;;;;;5072312;28;20540;-54
2023/05/19 13:28:46;;;;;;;2.87;2.00;;;;;;;;;;5071994;28;20200;-51
2023/05/19 13:31:14;;;;;;;3.63;1.85;;;;;;;;;;5070778;28;20418;-56
2023/05/19 13:33:40;;;;;;;3.70;1.60;;;;;;;;;;5071940;28;20200;-54
2023/05/19 13:36:06;;;;;;;4.57;1.90;;;;;;;;;;5068537;28;20305;-54
2023/05/19 13:38:32;;;;;;;3.67;1.50;;;;;;;;;;5072045;28;20570;-54
2023/05/19 13:40:58;;;;;;;3.20;1.57;;;;;;;;;;5071374;28;20238;-53
2023/05/19 13:43:24;;;;;;;1.73;1.60;;;;;;;;;;5072151;28;20212;-54
2023/05/19 13:45:50;;;;;;;3.07;1.80;;;;;;;;;;5072129;28;20199;-54
2023/05/19 13:48:17;;;;;;;3.63;1.80;;;;;;;;;;5069924;28;20685;-53
2023/05/19 13:50:43;;;;;;;5.30;2.20;;;;;;;;;;5071315;28;20663;-53
2023/05/19 13:53:10;;;;;;;2.93;1.90;;;;;;;;;;5071464;28;20206;-54
2023/05/19 13:55:36;;;;;;;3.40;1.73;;;;;;;;;;5071518;28;20203;-53
2023/05/19 13:58:02;;;;;;;2.50;1.50;;;;;;;;;;5071323;28;20240;-53
2023/05/19 14:00:29;;;;;;;2.13;1.23;;;;;;;;;;5071340;28;20202;-54
2023/05/19 14:02:55;;;;;;;3.90;1.50;;;;;;;;;;5071171;28;20653;-53
2023/05/19 14:05:22;;;;;;;2.40;1.60;;;;;;;;;;5071403;28;20264;-53
2023/05/19 14:07:48;;;;;;;2.73;1.60;;;;;;;;;;5071017;28;20677;-53
2023/05/19 14:10:15;;;;;;;3.83;1.70;;;;;;;;;;5071246;28;20684;-54
2023/05/19 14:12:41;;;;;;;3.00;2.23;;;;;;;;;;5071136;28;20228;-54
2023/05/19 14:15:07;;;;;;;4.37;2.10;;;;;;;;;;5071409;28;20283;-53
2023/05/19 14:17:33;;;;;;;2.10;1.33;;;;;;;;;;5071424;28;20258;-53
2023/05/19 14:20:00;;;;;;;4.77;1.80;;;;;;;;;;5071571;28;20201;-53
2023/05/19 14:22:27;;;;;;;2.73;1.93;;;;;;;;;;5071555;28;20663;-53
2023/05/19 14:24:53;;;;;;;2.90;1.50;;;;;;;;;;5071668;28;20654;-53
2023/05/19 14:27:19;;;;;;;2.03;1.47;;;;;;;;;;5071714;28;20246;-54
2023/05/19 14:29:45;;;;;;;3.50;1.60;;;;;;;;;;5071557;28;20199;-52
2023/05/19 14:32:11;;;;;;;1.83;1.47;;;;;;;;;;5071367;28;20525;-52
2023/05/19 14:34:37;;;;;;;1.73;1.53;;;;;;;;;;5071364;28;20205;-53
2023/05/19 14:37:03;;;;;;;2.73;1.40;;;;;;;;;;5071463;28;20219;-53
2023/05/19 14:39:31;;;;;;;2.50;1.40;;;;;;;;;;5071393;28;20245;-53
2023/05/19 14:41:58;;;;;;;2.50;1.50;;;;;;;;;;5071392;28;20363;-52